Sim-Planet VA

Sim-Planet Nouvel Horizon. By: Anthony Pay
Since 2020.




 METAR ET TAF INFORMATION
METAR FOR LEZL
ADDS - METARS form results

(1929 UTC 28 January 2022)
Data provider http://aviationweather.gov/metar/data/
 
METAR text: LEZL 281900Z 09007KT CAVOK 15/02 Q1026 NOSIG
Conditions at: LEZL (SEVILLA (CIV/MIL, ES) observed 1900 UTC 28 January 2022
Temperature: 15.0°C (59°F)
Dewpoint: 2.0°C (36°F) [RH = 41%]
Pressure (altimeter): 30.30 inches Hg (1026.0 mb)
Winds: from the E (90 degrees) at 8 MPH (7 knots; 3.6 m/s)
Visibility: 6 or more miles (10+ km)
Ceiling: ceiling and visibility are OK
Clouds: unknown
Weather: no significant weather observed at this time

METAR text: LEZL 281830Z 09008KT CAVOK 15/02 Q1026 NOSIG
Conditions at: LEZL (SEVILLA (CIV/MIL, ES) observed 1830 UTC 28 January 2022
Temperature: 15.0°C (59°F)
Dewpoint: 2.0°C (36°F) [RH = 41%]
Pressure (altimeter): 30.30 inches Hg (1026.0 mb)
Winds: from the E (90 degrees) at 9 MPH (8 knots; 4.1 m/s)
Visibility: 6 or more miles (10+ km)
Ceiling: ceiling and visibility are OK
Clouds: unknown
Weather: no significant weather observed at this time

Forecast for: LEZL (SEVILLA (CIV/MIL, ES)
Text: TAF LEZL 281400Z 2815/2915 11015KT CAVOK TX20/2815Z TN07/2907Z
Forecast period: 1500 to 1700 UTC 28 January 2022
Forecast type: FROM: standard forecast or significant change
Winds: from the ESE (110 degrees) at 17 MPH (15 knots; 7.7 m/s)
Visibility: 6 or more miles (10+ km)
Ceiling: unknown
Clouds: missing
Weather: no significant weather forecast for this period
Text: BECMG 2817/2819 11005KT
Forecast period: 1700 to 2300 UTC 28 January 2022
Forecast type: BECOMING: Conditions expected to become as follows by 1900 UTC 28 January 2022
Winds: from the ESE (110 degrees) at 6 MPH (5 knots; 2.6 m/s)
Visibility: 6 or more miles (10+ km)
Ceiling: unknown
Clouds: missing
Weather: no significant weather forecast for this period
Text: BECMG 2823/2901 05010KT
Forecast period: 2300 UTC 28 January 2022 to 1500 UTC 29 January 2022
Forecast type: BECOMING: Conditions expected to become as follows by 0100 UTC 29 January 2022
Winds: from the NE (50 degrees) at 12 MPH (10 knots; 5.1 m/s)
Visibility: 6 or more miles (10+ km)
Ceiling: unknown
Clouds: missing
Weather: no significant weather forecast for this period

 AÉROPORT DE AÉROPORT

 INFORMATIONS DE PISTE
Piste 09 Longueur de la piste 11024 ft Largeur de la piste 148 ft
Élévation de la piste 83 ft Seuil de la piste déplacés 0 ft Runway heading 90
Piste 27 Longueur de la piste 11024 ft Largeur de la piste 148 ft
Élévation de la piste 111 ft Seuil de la piste déplacés 0 ft Runway heading 270

 AÉROPORT FRÉQUENCES
Type APP Nom APP Féquence 120 MHZ
Type ATIS Nom ATIS Féquence 118.175 MHZ
Type GND Nom GND Féquence 121.7 MHZ
Type TWR Nom TWR Féquence 118.1 MHZ

 SIDA DE NAVIGATION
Type NDB Nom Sevilla Féquence 420 KHZ
Type VOR-DME Nom Sevilla Féquence 113700 KHZ

Nos Partenaires